Time;durP1;ratioP1;P1;durP2;ratioP2;P2;SDS_P1;SDS_P2;PMS_P1;PMS_P2;Temp;Humidity;BMP_temperature;BMP_pressure;BME280_temperature;BME280_humidity;BME280_pressure;Samples;Min_cycle;Max_cycle;Signal;HPM_P1;HPM_P2
2023/04/28 00:04:14;;;;;;;30.80;20.40;;;23.50;56.40;;;;;;222372;1263;24219;-47
2023/04/28 00:09:19;;;;;;;35.30;20.30;;;23.70;55.80;;;;;;222312;1263;22516;-48
2023/04/28 00:14:24;;;;;;;31.20;20.30;;;23.90;55.60;;;;;;222311;1265;22515;-46
2023/04/28 00:19:28;;;;;;;28.20;18.00;;;24.00;55.00;;;;;;222604;1263;22508;-44
2023/04/28 00:24:32;;;;;;;33.50;19.80;;;24.00;55.20;;;;;;222351;1256;22569;-47
2023/04/28 00:29:36;;;;;;;33.30;19.30;;;24.10;54.70;;;;;;222590;1253;22473;-45
2023/04/28 00:34:40;;;;;;;24.90;18.70;;;24.10;54.30;;;;;;222590;1256;22511;-50
2023/04/28 00:39:48;;;;;;;29.90;18.00;;;24.20;54.10;;;;;;222658;1260;24180;-44
2023/04/28 00:44:52;;;;;;;26.80;18.10;;;24.20;54.10;;;;;;222563;1263;25435;-45
2023/04/28 00:49:58;;;;;;;25.10;17.60;;;24.30;54.10;;;;;;222049;1259;23133;-46
2023/04/28 00:55:04;;;;;;;28.00;18.00;;;24.30;53.90;;;;;;222435;1265;24245;-46
2023/04/28 01:00:09;;;;;;;24.40;16.90;;;24.30;53.80;;;;;;222435;1256;22637;-44
2023/04/28 01:05:14;;;;;;;24.40;17.10;;;24.30;54.20;;;;;;222312;1256;22614;-46
2023/04/28 01:10:19;;;;;;;26.10;16.60;;;24.30;53.80;;;;;;222363;1260;22630;-44
2023/04/28 01:15:23;;;;;;;22.50;16.10;;;24.40;53.80;;;;;;222279;1259;22567;-43
2023/04/28 01:20:30;;;;;;;22.10;15.00;;;24.30;54.00;;;;;;222240;1254;24092;-45
2023/04/28 01:25:34;;;;;;;27.40;16.50;;;24.30;54.10;;;;;;221400;1265;22522;-48
2023/04/28 01:30:39;;;;;;;24.90;15.80;;;24.20;54.10;;;;;;221597;1265;24243;-48
2023/04/28 01:35:43;;;;;;;24.60;16.20;;;24.20;54.10;;;;;;221576;1262;25365;-48
2023/04/28 01:40:47;;;;;;;25.30;15.50;;;24.10;54.60;;;;;;221560;1259;22514;-47
2023/04/28 01:45:53;;;;;;;24.60;15.80;;;24.10;54.70;;;;;;221598;1269;25520;-45
2023/04/28 01:50:58;;;;;;;24.30;15.90;;;23.90;54.90;;;;;;221431;1259;23392;-50
2023/04/28 01:56:02;;;;;;;20.90;14.20;;;23.80;55.20;;;;;;222036;1254;22512;-47
2023/04/28 02:01:06;;;;;;;22.50;15.00;;;23.80;54.70;;;;;;222458;1247;22576;-50
2023/04/28 02:06:11;;;;;;;23.40;15.60;;;23.80;54.80;;;;;;222296;1263;22521;-45
2023/04/28 02:11:15;;;;;;;21.20;14.00;;;23.70;54.70;;;;;;222134;1267;22730;-46
2023/04/28 02:16:19;;;;;;;24.10;14.60;;;23.60;54.60;;;;;;222101;1266;25258;-48
2023/04/28 02:21:26;;;;;;;22.90;15.00;;;23.60;55.50;;;;;;222234;1254;24215;-46
2023/04/28 02:26:32;;;;;;;23.00;14.70;;;23.50;55.50;;;;;;221862;1259;22615;-44
2023/04/28 02:31:36;;;;;;;17.90;13.10;;;23.40;55.90;;;;;;222410;1263;23132;-48
2023/04/28 02:36:41;;;;;;;21.30;13.10;;;23.40;55.70;;;;;;222054;1269;22641;-50
2023/04/28 02:41:45;;;;;;;20.10;14.30;;;23.30;56.10;;;;;;222223;1256;22600;-47
2023/04/28 02:46:49;;;;;;;19.50;13.30;;;23.30;55.80;;;;;;222385;1254;22566;-47
2023/04/28 02:51:53;;;;;;;18.90;13.90;;;23.30;55.70;;;;;;222260;1259;22643;-46
2023/04/28 02:56:58;;;;;;;18.50;13.00;;;23.20;56.30;;;;;;221993;1266;22743;-48
2023/04/28 03:02:01;;;;;;;16.50;12.70;;;23.10;55.90;;;;;;222099;1263;26548;-48
2023/04/28 03:07:06;;;;;;;19.10;12.70;;;23.10;56.00;;;;;;222023;1263;24080;-46
2023/04/28 03:12:10;;;;;;;17.30;12.50;;;23.10;56.70;;;;;;222239;1263;22642;-50
2023/04/28 03:17:14;;;;;;;18.00;12.80;;;23.00;56.20;;;;;;222167;1265;22649;-49
2023/04/28 03:22:19;;;;;;;18.10;12.70;;;22.90;56.30;;;;;;222105;1265;22646;-48
2023/04/28 03:27:25;;;;;;;16.30;11.30;;;23.00;56.70;;;;;;222197;1269;22527;-47
2023/04/28 03:32:30;;;;;;;16.30;11.90;;;23.20;56.00;;;;;;222506;1251;23928;-50
2023/04/28 03:37:34;;;;;;;17.40;11.20;;;23.50;55.60;;;;;;222446;1259;23880;-49
2023/04/28 03:42:38;;;;;;;14.70;10.90;;;23.70;55.10;;;;;;222575;1268;22600;-46
2023/04/28 03:47:44;;;;;;;16.30;11.80;;;23.80;54.60;;;;;;222756;1265;24059;-52
2023/04/28 03:52:49;;;;;;;13.20;10.50;;;24.00;54.30;;;;;;222308;1253;24041;-49
2023/04/28 03:57:53;;;;;;;12.60;10.00;;;24.10;54.00;;;;;;222578;1260;22510;-45
2023/04/28 04:02:57;;;;;;;13.30;10.60;;;24.10;54.30;;;;;;222700;1263;22505;-49
2023/04/28 04:08:02;;;;;;;14.80;10.50;;;24.20;53.80;;;;;;222649;1263;23896;-46
2023/04/28 04:13:06;;;;;;;15.30;10.90;;;24.20;53.60;;;;;;223085;1256;22511;-46
2023/04/28 04:18:11;;;;;;;13.40;9.80;;;24.30;53.10;;;;;;222682;1263;22648;-48
2023/04/28 04:23:33;;;;;;;12.20;10.30;;;24.30;53.40;;;;;;222915;1263;23901;-46
2023/04/28 04:28:37;;;;;;;12.00;9.30;;;24.30;54.00;;;;;;222988;1263;22517;-49
2023/04/28 04:33:42;;;;;;;14.20;10.50;;;24.40;53.50;;;;;;223230;1263;26478;-48
2023/04/28 04:38:47;;;;;;;14.30;10.10;;;24.30;53.20;;;;;;223020;1262;22515;-45
2023/04/28 04:43:52;;;;;;;12.20;9.40;;;24.40;53.60;;;;;;222905;1268;22667;-49
2023/04/28 04:48:57;;;;;;;13.40;9.50;;;24.40;53.20;;;;;;223037;1256;22521;-46
2023/04/28 04:54:02;;;;;;;12.00;9.60;;;24.40;53.30;;;;;;222835;1254;22511;-44
2023/04/28 04:59:06;;;;;;;11.10;8.80;;;24.30;53.40;;;;;;222775;1263;26542;-45
2023/04/28 05:04:36;;;;;;;11.80;9.60;;;24.30;53.50;;;;;;223176;1263;22671;-44
2023/04/28 05:09:42;;;;;;;14.20;9.30;;;24.40;53.40;;;;;;222557;1266;22518;-47
2023/04/28 05:14:48;;;;;;;13.10;9.10;;;24.40;53.70;;;;;;222289;1263;22513;-45
2023/04/28 05:19:54;;;;;;;12.70;9.80;;;24.40;53.60;;;;;;222438;1266;22696;-46
2023/04/28 05:24:58;;;;;;;12.70;8.80;;;24.50;54.20;;;;;;222083;1263;22514;-47
2023/04/28 05:30:04;;;;;;;13.70;9.20;;;24.50;53.80;;;;;;222188;1262;22867;-46
2023/04/28 05:35:09;;;;;;;10.30;7.90;;;24.50;53.70;;;;;;222118;1261;25604;-47
2023/04/28 05:40:13;;;;;;;9.90;8.70;;;24.50;53.70;;;;;;222433;1266;25220;-47
2023/04/28 05:45:17;;;;;;;16.10;8.60;;;24.50;54.00;;;;;;222334;1254;22574;-46
2023/04/28 05:50:22;;;;;;;12.80;8.10;;;24.40;54.20;;;;;;222291;1262;24254;-50
2023/04/28 05:55:26;;;;;;;10.70;9.00;;;24.30;55.00;;;;;;222293;1266;25374;-48
2023/04/28 06:00:33;;;;;;;12.00;7.70;;;24.20;55.00;;;;;;222914;1263;22498;-50
2023/04/28 06:05:37;;;;;;;15.20;8.30;;;24.20;55.60;;;;;;222161;1253;24278;-46
2023/04/28 06:10:42;;;;;;;10.60;7.40;;;24.20;55.20;;;;;;222260;1263;24499;-45
2023/04/28 06:15:46;;;;;;;15.70;8.40;;;24.00;55.90;;;;;;222151;1254;22549;-54
2023/04/28 06:20:51;;;;;;;12.40;8.30;;;24.10;56.00;;;;;;222450;1264;24183;-47
2023/04/28 06:25:55;;;;;;;12.80;8.10;;;24.10;55.90;;;;;;222052;1263;227908;-47
2023/04/28 06:31:00;;;;;;;11.80;7.80;;;24.10;55.80;;;;;;222185;1263;22508;-51
2023/04/28 06:36:05;;;;;;;11.90;7.80;;;24.00;55.70;;;;;;222248;1263;24180;-48
2023/04/28 06:41:10;;;;;;;11.10;7.80;;;24.10;55.50;;;;;;222230;1266;25206;-52
2023/04/28 06:46:16;;;;;;;14.80;7.40;;;24.10;55.50;;;;;;222672;1264;22527;-50
2023/04/28 06:51:20;;;;;;;13.00;7.20;;;24.00;56.10;;;;;;222200;1254;25389;-49
2023/04/28 06:56:24;;;;;;;10.60;7.10;;;23.90;55.70;;;;;;222100;1263;22512;-47
2023/04/28 07:01:28;;;;;;;12.50;7.30;;;23.90;55.40;;;;;;222242;1269;25341;-47
2023/04/28 07:06:32;;;;;;;10.30;7.60;;;23.80;55.20;;;;;;222269;1257;22619;-49
2023/04/28 07:11:36;;;;;;;10.90;8.20;;;23.80;54.50;;;;;;222320;1269;24318;-56
2023/04/28 07:16:41;;;;;;;10.50;8.10;;;23.70;54.50;;;;;;222176;1263;22508;-48
2023/04/28 07:21:45;;;;;;;13.00;7.90;;;23.70;54.90;;;;;;222250;1268;23974;-54
2023/04/28 07:26:50;;;;;;;14.00;7.80;;;23.50;55.10;;;;;;222199;1253;22522;-53
2023/04/28 07:31:54;;;;;;;9.80;7.30;;;23.70;54.90;;;;;;222285;1253;22652;-53
2023/04/28 07:36:58;;;;;;;9.80;7.40;;;23.70;54.50;;;;;;222606;1253;22511;-51
2023/04/28 07:42:02;;;;;;;9.10;7.20;;;23.60;54.80;;;;;;221930;1260;22541;-52
2023/04/28 07:47:07;;;;;;;11.00;7.40;;;23.70;54.50;;;;;;222262;1261;23455;-51
2023/04/28 07:52:11;;;;;;;9.20;6.90;;;23.60;54.40;;;;;;222102;1254;24164;-53
2023/04/28 07:57:15;;;;;;;10.80;7.40;;;23.60;54.30;;;;;;222613;1259;24356;-53
2023/04/28 08:02:20;;;;;;;7.00;6.20;;;23.50;54.20;;;;;;222378;1254;22546;-55
2023/04/28 08:07:25;;;;;;;7.60;6.40;;;23.60;54.10;;;;;;222442;1266;24330;-57
2023/04/28 08:12:30;;;;;;;9.20;6.90;;;23.50;53.90;;;;;;222134;1247;23031;-53
2023/04/28 08:17:33;;;;;;;8.00;6.80;;;23.50;53.90;;;;;;222209;1266;22522;-50
2023/04/28 08:22:37;;;;;;;9.20;7.30;;;23.60;53.60;;;;;;222450;1263;22525;-52
2023/04/28 08:27:42;;;;;;;7.60;6.50;;;23.60;53.40;;;;;;222214;1252;24193;-54
2023/04/28 08:32:46;;;;;;;10.80;6.90;;;23.50;53.50;;;;;;222398;1263;22612;-56
2023/04/28 08:37:51;;;;;;;6.70;6.00;;;23.50;53.50;;;;;;222267;1268;24209;-51
2023/04/28 08:42:56;;;;;;;8.30;6.00;;;23.50;53.30;;;;;;222096;1266;24182;-51
2023/04/28 08:48:04;;;;;;;6.50;5.70;;;23.50;53.20;;;;;;222392;1268;24214;-52
2023/04/28 08:53:10;;;;;;;14.30;6.80;;;23.50;53.10;;;;;;222556;1266;24244;-53
2023/04/28 08:58:14;;;;;;;7.30;6.00;;;23.50;53.00;;;;;;222572;1254;24170;-51
2023/04/28 09:03:18;;;;;;;7.70;6.20;;;23.50;53.00;;;;;;222466;1263;22605;-54
2023/04/28 09:08:22;;;;;;;6.90;5.10;;;23.50;52.90;;;;;;222255;1253;23932;-53
2023/04/28 09:13:27;;;;;;;5.90;5.30;;;23.50;52.80;;;;;;222448;1260;22511;-53
2023/04/28 09:18:32;;;;;;;9.40;5.00;;;23.40;53.30;;;;;;222368;1261;24277;-52
2023/04/28 09:23:50;;;;;;;7.20;5.30;;;23.50;53.40;;;;;;222567;1261;25271;-58
2023/04/28 09:29:12;;;;;;;8.20;5.80;;;23.60;53.00;;;;;;222317;1257;22972;-61
2023/04/28 09:34:16;;;;;;;7.40;5.00;;;23.60;53.00;;;;;;222436;1264;25344;-51
2023/04/28 09:39:30;;;;;;;7.30;5.20;;;23.60;53.20;;;;;;222134;1254;22710;-51
2023/04/28 09:44:35;;;;;;;6.40;5.20;;;23.60;52.90;;;;;;222547;1260;22778;-51
2023/04/28 09:49:56;;;;;;;5.60;5.10;;;23.60;52.60;;;;;;222217;1260;22625;-53
2023/04/28 09:55:02;;;;;;;5.30;4.70;;;23.60;52.60;;;;;;222509;1263;24432;-55
2023/04/28 10:00:08;;;;;;;5.30;4.70;;;23.60;52.50;;;;;;222362;1261;22725;-61
2023/04/28 10:05:15;;;;;;;5.10;4.50;;;23.60;52.90;;;;;;222468;1248;22748;-59
2023/04/28 10:10:21;;;;;;;8.60;5.00;;;23.60;52.60;;;;;;222221;1255;22524;-56
2023/04/28 10:15:24;;;;;;;7.00;4.40;;;23.60;52.50;;;;;;222618;1263;22635;-58
2023/04/28 10:20:30;;;;;;;5.60;4.40;;;23.70;52.20;;;;;;222612;1263;22645;-50
2023/04/28 10:25:35;;;;;;;5.20;4.70;;;23.70;52.00;;;;;;222345;1264;24185;-56
2023/04/28 10:30:39;;;;;;;7.20;4.60;;;23.70;52.10;;;;;;222272;1265;22526;-52
2023/04/28 10:35:47;;;;;;;6.50;4.60;;;23.70;52.10;;;;;;222293;1261;23917;-58
2023/04/28 10:40:54;;;;;;;5.20;4.40;;;23.80;52.20;;;;;;222370;1256;25796;-53
2023/04/28 10:46:01;;;;;;;4.80;3.80;;;23.80;52.00;;;;;;222399;1264;24267;-52
2023/04/28 10:51:06;;;;;;;4.80;3.90;;;23.80;51.90;;;;;;222450;1254;24208;-56
2023/04/28 10:56:15;;;;;;;5.10;4.70;;;23.90;51.50;;;;;;222499;1261;22726;-54
2023/04/28 11:01:20;;;;;;;4.60;4.20;;;23.90;51.30;;;;;;222422;1262;25334;-53
2023/04/28 11:06:31;;;;;;;5.60;4.90;;;23.90;51.40;;;;;;222471;1263;22537;-52
2023/04/28 11:11:37;;;;;;;4.70;4.30;;;23.90;51.60;;;;;;222489;1263;22518;-52
2023/04/28 11:17:03;;;;;;;4.60;4.20;;;24.00;51.60;;;;;;222382;1263;23918;-58
2023/04/28 11:22:19;;;;;;;5.20;3.60;;;23.90;51.30;;;;;;222441;1266;24222;-58
2023/04/28 11:27:24;;;;;;;4.60;4.20;;;23.90;51.30;;;;;;222725;1262;23805;-63
2023/04/28 11:32:34;;;;;;;4.10;3.70;;;23.90;51.10;;;;;;222348;1266;23146;-55
2023/04/28 11:37:38;;;;;;;4.10;3.70;;;23.90;51.30;;;;;;222358;1257;22515;-57
2023/04/28 11:42:48;;;;;;;4.20;3.80;;;23.90;51.20;;;;;;221906;1264;22514;-55
2023/04/28 11:47:52;;;;;;;5.60;3.80;;;23.90;51.30;;;;;;222117;1260;22656;-51
2023/04/28 11:52:56;;;;;;;3.60;3.30;;;24.00;51.50;;;;;;222359;1263;23920;-63
2023/04/28 11:58:24;;;;;;;4.90;3.70;;;24.00;51.10;;;;;;222446;1261;24240;-59
2023/04/28 12:03:28;;;;;;;4.90;3.80;;;24.00;50.90;;;;;;222523;1254;22512;-57
2023/04/28 12:08:32;;;;;;;4.20;3.80;;;24.10;50.60;;;;;;222454;1266;24535;-54
2023/04/28 12:13:37;;;;;;;4.40;3.20;;;24.10;50.40;;;;;;222327;1269;22512;-55
2023/04/28 12:18:58;;;;;;;3.50;3.20;;;24.10;50.80;;;;;;222200;1266;23918;-55
2023/04/28 12:24:21;;;;;;;5.70;3.30;;;24.10;50.20;;;;;;222477;1263;22527;-54
2023/04/28 12:29:37;;;;;;;3.70;3.20;;;24.10;50.50;;;;;;222410;1265;23902;-55
2023/04/28 12:34:44;;;;;;;4.10;3.40;;;24.10;50.20;;;;;;222321;1262;22508;-58
2023/04/28 12:39:48;;;;;;;3.50;3.20;;;24.00;50.10;;;;;;222337;1263;22598;-63
2023/04/28 12:44:52;;;;;;;3.60;2.90;;;24.00;50.20;;;;;;222369;1269;25375;-59
2023/04/28 12:49:56;;;;;;;4.10;3.10;;;24.10;50.30;;;;;;222323;1268;24512;-62
2023/04/28 12:55:04;;;;;;;2.90;2.70;;;24.10;50.10;;;;;;222390;1254;26493;-61
2023/04/28 13:00:09;;;;;;;3.40;3.00;;;24.00;50.10;;;;;;222198;1264;22521;-61
2023/04/28 13:05:13;;;;;;;3.20;2.70;;;24.00;50.10;;;;;;222400;1263;22522;-64
2023/04/28 13:10:18;;;;;;;2.90;2.60;;;24.00;50.10;;;;;;222362;1263;22602;-59
2023/04/28 13:15:22;;;;;;;3.70;3.40;;;24.00;50.10;;;;;;222593;1254;25452;-62
2023/04/28 13:20:26;;;;;;;3.10;2.80;;;24.00;49.90;;;;;;222051;1266;22541;-59
2023/04/28 13:25:30;;;;;;;5.50;3.00;;;24.00;50.30;;;;;;222430;1269;24416;-59
2023/04/28 13:30:35;;;;;;;6.10;2.90;;;24.00;50.80;;;;;;222396;1259;22535;-58
2023/04/28 13:35:39;;;;;;;4.70;3.00;;;24.00;51.30;;;;;;222230;1269;25482;-61
2023/04/28 13:40:43;;;;;;;3.50;2.90;;;24.00;50.60;;;;;;222377;1255;25383;-55
2023/04/28 13:45:49;;;;;;;3.90;2.80;;;24.00;50.30;;;;;;222317;1262;22523;-51
2023/04/28 13:50:53;;;;;;;3.10;2.80;;;24.10;49.50;;;;;;222466;1251;24321;-59
2023/04/28 13:59:36;;;;;;;3.10;2.70;;;24.10;48.90;;;;;;215911;1292;542922;-53
2023/04/28 14:04:46;;;;;;;5.40;2.50;;;24.00;50.20;;;;;;219920;1282;22523;-47
2023/04/28 14:09:51;;;;;;;3.50;2.40;;;23.90;50.70;;;;;;220079;1277;222374;-51
2023/04/28 14:14:55;;;;;;;3.10;2.30;;;24.00;49.80;;;;;;220308;1281;22761;-51
2023/04/28 14:20:00;;;;;;;3.50;2.70;;;24.10;49.80;;;;;;220235;1281;22712;-50
2023/04/28 14:25:06;;;;;;;2.90;2.30;;;24.20;49.80;;;;;;220267;1276;23457;-48
2023/04/28 14:30:11;;;;;;;20.70;3.00;;;24.30;49.90;;;;;;220102;1278;22629;-50
2023/04/28 14:35:16;;;;;;;4.70;2.60;;;24.10;50.00;;;;;;220202;1260;22777;-47
2023/04/28 14:40:20;;;;;;;2.50;2.30;;;24.20;50.40;;;;;;220094;1273;22962;-50
2023/04/28 14:45:25;;;;;;;5.40;2.60;;;24.10;50.70;;;;;;220493;1278;22525;-51
2023/04/28 14:50:29;;;;;;;5.20;2.90;;;24.10;50.40;;;;;;220875;1278;25364;-52
2023/04/28 14:55:34;;;;;;;3.80;2.70;;;24.10;50.60;;;;;;220180;1281;24191;-50
2023/04/28 15:00:38;;;;;;;4.20;2.20;;;24.10;50.50;;;;;;220235;1267;25349;-58
2023/04/28 15:05:42;;;;;;;8.30;2.70;;;24.10;50.50;;;;;;220341;1272;22524;-54
2023/04/28 15:10:47;;;;;;;7.60;2.90;;;24.10;49.80;;;;;;220912;1276;25344;-54
2023/04/28 15:15:51;;;;;;;7.90;3.10;;;24.10;50.50;;;;;;220870;1266;25321;-51
2023/04/28 15:20:55;;;;;;;12.30;4.00;;;24.00;51.10;;;;;;220835;1257;22540;-54
2023/04/28 15:26:00;;;;;;;17.50;3.60;;;24.00;51.00;;;;;;221073;1275;25241;-55
2023/04/28 15:31:06;;;;;;;7.90;2.80;;;23.90;51.00;;;;;;221774;1275;22896;-53
2023/04/28 15:36:11;;;;;;;15.30;2.90;;;23.90;51.30;;;;;;220909;1276;25166;-49
2023/04/28 15:41:15;;;;;;;7.60;2.40;;;23.90;51.80;;;;;;220778;1275;22537;-49
2023/04/28 15:46:20;;;;;;;6.90;2.80;;;24.00;51.50;;;;;;221003;1276;24389;-49
2023/04/28 15:51:24;;;;;;;7.60;2.90;;;24.00;50.70;;;;;;220858;1278;25325;-49
2023/04/28 15:56:29;;;;;;;10.60;2.70;;;24.00;50.40;;;;;;220782;1273;22589;-54
2023/04/28 16:01:34;;;;;;;9.30;2.50;;;24.00;50.10;;;;;;220887;1266;23212;-60
2023/04/28 16:06:39;;;;;;;6.10;2.40;;;24.10;49.60;;;;;;220983;1264;25353;-51
2023/04/28 16:11:44;;;;;;;8.20;2.60;;;24.00;49.80;;;;;;220523;1278;23931;-54
2023/04/28 16:16:49;;;;;;;4.30;2.10;;;23.90;49.90;;;;;;220766;1273;22523;-54
2023/04/28 16:21:53;;;;;;;5.70;2.40;;;23.90;50.50;;;;;;220792;1275;22533;-54
2023/04/28 16:26:57;;;;;;;7.00;2.70;;;23.80;49.70;;;;;;221005;1271;25337;-53
2023/04/28 16:32:03;;;;;;;4.70;2.80;;;23.80;50.30;;;;;;221124;1273;22517;-52
2023/04/28 16:37:10;;;;;;;3.60;1.80;;;24.00;49.90;;;;;;220617;1273;24370;-52
2023/04/28 16:42:15;;;;;;;4.40;2.20;;;24.00;49.30;;;;;;220469;1272;24373;-54
2023/04/28 16:47:22;;;;;;;10.80;2.50;;;23.90;49.40;;;;;;221706;1273;22531;-55
2023/04/28 16:52:29;;;;;;;5.30;2.60;;;23.90;49.10;;;;;;220788;1275;24183;-60
2023/04/28 16:57:33;;;;;;;6.90;2.20;;;23.90;49.00;;;;;;220989;1260;24241;-55
2023/04/28 17:02:40;;;;;;;5.50;2.10;;;23.80;49.20;;;;;;220935;1272;22953;-50
2023/04/28 17:07:53;;;;;;;4.10;2.50;;;23.90;49.60;;;;;;221025;1264;22539;-57
2023/04/28 17:13:07;;;;;;;7.20;2.30;;;23.90;48.50;;;;;;220886;1273;22525;-54
2023/04/28 17:18:18;;;;;;;7.80;2.60;;;23.80;48.90;;;;;;220944;1269;22527;-55
2023/04/28 17:23:22;;;;;;;5.80;2.70;;;23.80;49.00;;;;;;220689;1276;24121;-52
2023/04/28 17:28:27;;;;;;;3.90;2.20;;;23.70;48.80;;;;;;220976;1276;22524;-52
2023/04/28 17:33:31;;;;;;;3.20;2.70;;;23.70;48.90;;;;;;220971;1275;25484;-53
2023/04/28 17:38:37;;;;;;;8.10;2.60;;;23.70;49.20;;;;;;221034;1272;24237;-55
2023/04/28 17:43:42;;;;;;;7.50;2.80;;;23.70;49.40;;;;;;221369;1273;22523;-56
2023/04/28 17:48:46;;;;;;;7.40;2.50;;;23.70;49.30;;;;;;220903;1266;22642;-53
2023/04/28 17:53:50;;;;;;;8.60;2.40;;;23.70;49.10;;;;;;220859;1272;22528;-57
2023/04/28 17:58:55;;;;;;;12.30;2.70;;;23.60;49.00;;;;;;221246;1273;22564;-62
2023/04/28 18:03:59;;;;;;;10.00;2.60;;;23.60;49.20;;;;;;221052;1270;22927;-55
2023/04/28 18:09:05;;;;;;;12.20;3.00;;;23.60;49.50;;;;;;221118;1265;25319;-56
2023/04/28 18:14:10;;;;;;;7.20;3.00;;;23.60;49.40;;;;;;221213;1275;22574;-59
2023/04/28 18:19:15;;;;;;;12.90;3.10;;;23.60;49.50;;;;;;220860;1276;22526;-52
2023/04/28 18:24:23;;;;;;;7.70;2.50;;;23.60;49.50;;;;;;220943;1270;22604;-59
2023/04/28 18:29:28;;;;;;;11.90;2.90;;;23.50;49.20;;;;;;220862;1273;22663;-55
2023/04/28 18:34:34;;;;;;;14.20;3.20;;;23.60;49.00;;;;;;220968;1266;24335;-58
2023/04/28 18:39:41;;;;;;;11.60;3.20;;;23.60;49.50;;;;;;220943;1273;24045;-55
2023/04/28 18:44:50;;;;;;;9.80;2.80;;;23.60;49.00;;;;;;220986;1275;22535;-55
2023/04/28 18:49:56;;;;;;;21.50;8.30;;;23.60;49.50;;;;;;221164;1267;23002;-53
2023/04/28 18:55:03;;;;;;;55.80;23.50;;;23.60;50.00;;;;;;221188;1273;22527;-52
2023/04/28 19:00:10;;;;;;;63.50;28.00;;;23.50;50.50;;;;;;221029;1276;25558;-53
2023/04/28 19:05:15;;;;;;;81.90;35.40;;;23.60;50.50;;;;;;221214;1275;22511;-52
2023/04/28 19:10:20;;;;;;;72.00;34.20;;;23.70;50.80;;;;;;221165;1273;24193;-49
2023/04/28 19:15:26;;;;;;;74.90;35.00;;;23.70;50.30;;;;;;221128;1263;24250;-51
2023/04/28 19:20:32;;;;;;;79.70;36.70;;;23.60;50.40;;;;;;220860;1272;25268;-52
2023/04/28 19:25:37;;;;;;;73.10;35.10;;;23.60;51.30;;;;;;220894;1272;22763;-50
2023/04/28 19:30:43;;;;;;;69.90;33.70;;;23.70;51.00;;;;;;221091;1263;25223;-49
2023/04/28 19:35:53;;;;;;;65.50;32.60;;;23.70;50.70;;;;;;221022;1264;22536;-50
2023/04/28 19:41:05;;;;;;;72.50;34.00;;;23.70;50.90;;;;;;220961;1276;22521;-51
2023/04/28 19:46:10;;;;;;;61.10;30.20;;;23.60;50.50;;;;;;220847;1273;24212;-52
2023/04/28 19:51:21;;;;;;;59.10;30.80;;;23.60;50.60;;;;;;220853;1255;24202;-50
2023/04/28 19:56:27;;;;;;;63.60;30.10;;;23.60;51.10;;;;;;221172;1274;24331;-49
2023/04/28 20:01:40;;;;;;;63.70;30.00;;;23.60;50.70;;;;;;220993;1273;24214;-51
2023/04/28 20:06:47;;;;;;;51.10;26.60;;;23.50;51.10;;;;;;221054;1274;22724;-53
2023/04/28 20:11:52;;;;;;;57.50;28.00;;;23.50;51.20;;;;;;221233;1257;24401;-56
2023/04/28 20:17:00;;;;;;;65.00;27.40;;;23.50;51.90;;;;;;220768;1264;25248;-48
2023/04/28 20:22:06;;;;;;;57.60;27.10;;;23.50;54.40;;;;;;221326;1267;25220;-49
2023/04/28 20:27:12;;;;;;;62.30;29.00;;;23.60;55.90;;;;;;221462;1270;25327;-50
2023/04/28 20:32:17;;;;;;;52.80;26.60;;;23.60;54.60;;;;;;221394;1267;22886;-53
2023/04/28 20:37:22;;;;;;;46.50;24.80;;;23.60;54.40;;;;;;221257;1270;22562;-52
2023/04/28 20:42:27;;;;;;;60.30;26.20;;;23.50;54.70;;;;;;221258;1258;23774;-52
2023/04/28 20:47:32;;;;;;;58.60;25.80;;;23.40;55.00;;;;;;221324;1267;25297;-51
2023/04/28 20:52:37;;;;;;;56.80;26.10;;;23.50;57.80;;;;;;221602;1267;22534;-55
2023/04/28 20:57:41;;;;;;;51.90;25.40;;;23.70;57.60;;;;;;221925;1259;22518;-50
2023/04/28 21:02:46;;;;;;;55.80;25.60;;;23.60;59.10;;;;;;221811;1263;22514;-55
2023/04/28 21:07:51;;;;;;;52.10;24.70;;;23.50;59.40;;;;;;221552;1267;22515;-58
2023/04/28 21:12:55;;;;;;;59.00;25.30;;;23.40;59.20;;;;;;221389;1267;25390;-50
2023/04/28 21:17:59;;;;;;;49.40;23.30;;;23.40;59.20;;;;;;221692;1259;22632;-53
2023/04/28 21:23:06;;;;;;;48.10;24.00;;;23.50;58.10;;;;;;221556;1266;22534;-51
2023/04/28 21:28:12;;;;;;;45.30;23.30;;;23.50;58.70;;;;;;221748;1264;25220;-53
2023/04/28 21:33:16;;;;;;;45.00;22.30;;;23.40;58.70;;;;;;221682;1264;25570;-54
2023/04/28 21:38:21;;;;;;;43.10;22.10;;;23.50;58.60;;;;;;221441;1270;22515;-52
2023/04/28 21:43:25;;;;;;;40.20;20.70;;;23.50;58.10;;;;;;221399;1269;25220;-55
2023/04/28 21:48:29;;;;;;;37.90;20.40;;;23.50;58.30;;;;;;221490;1260;22515;-53
2023/04/28 21:53:33;;;;;;;37.30;20.90;;;23.50;57.80;;;;;;221331;1263;22635;-49
2023/04/28 21:58:38;;;;;;;39.60;19.80;;;23.50;57.30;;;;;;221626;1266;22608;-54
2023/04/28 22:03:44;;;;;;;38.90;18.70;;;23.50;57.40;;;;;;221836;1267;25329;-50
2023/04/28 22:08:49;;;;;;;38.10;20.10;;;23.50;57.60;;;;;;221406;1259;22519;-48
2023/04/28 22:13:54;;;;;;;35.10;18.70;;;23.60;57.10;;;;;;221415;1266;25230;-56
2023/04/28 22:18:58;;;;;;;30.40;17.70;;;23.50;57.30;;;;;;221623;1258;22524;-51
2023/04/28 22:24:05;;;;;;;34.90;18.10;;;23.50;57.10;;;;;;221236;1270;25456;-51
2023/04/28 22:29:10;;;;;;;35.80;18.20;;;23.30;57.50;;;;;;221481;1263;22585;-50
2023/04/28 22:34:15;;;;;;;30.40;16.80;;;23.30;57.90;;;;;;221304;1267;24146;-52
2023/04/28 22:39:19;;;;;;;28.60;16.30;;;23.40;57.30;;;;;;221544;1266;23042;-53
2023/04/28 22:44:24;;;;;;;28.10;16.80;;;23.30;57.80;;;;;;221482;1267;22535;-53
2023/04/28 22:49:29;;;;;;;32.60;17.10;;;23.20;57.20;;;;;;221292;1267;25420;-53
2023/04/28 22:54:33;;;;;;;27.20;15.60;;;23.20;57.50;;;;;;221255;1270;22514;-50
2023/04/28 22:59:37;;;;;;;27.90;16.00;;;23.30;57.00;;;;;;221371;1261;22509;-52
2023/04/28 23:04:42;;;;;;;23.70;14.50;;;23.30;56.80;;;;;;221394;1259;22533;-52
2023/04/28 23:09:46;;;;;;;26.20;15.10;;;23.20;56.80;;;;;;221514;1266;25217;-54
2023/04/28 23:14:50;;;;;;;26.20;15.20;;;23.10;57.20;;;;;;221990;1267;22602;-51
2023/04/28 23:19:55;;;;;;;27.90;15.60;;;23.10;57.30;;;;;;221708;1259;22537;-51
2023/04/28 23:24:59;;;;;;;22.20;14.40;;;23.10;57.10;;;;;;221711;1266;22649;-48
2023/04/28 23:30:04;;;;;;;27.40;15.50;;;23.10;57.30;;;;;;221413;1260;24622;-52
2023/04/28 23:35:09;;;;;;;25.70;14.30;;;23.10;57.00;;;;;;221318;1267;22529;-54
2023/04/28 23:40:14;;;;;;;21.80;13.80;;;23.10;56.80;;;;;;221701;1266;26515;-49
2023/04/28 23:45:18;;;;;;;21.50;12.90;;;23.10;56.70;;;;;;221898;1266;25446;-53
2023/04/28 23:50:22;;;;;;;24.00;12.70;;;23.10;56.60;;;;;;221387;1266;24110;-50
2023/04/28 23:55:26;;;;;;;21.20;12.90;;;23.20;56.70;;;;;;221542;1269;25323;-52
